Time;durP1;ratioP1;P1;durP2;ratioP2;P2;SDS_P1;SDS_P2;PMS_P1;PMS_P2;Temp;Humidity;BMP_temperature;BMP_pressure;BME280_temperature;BME280_humidity;BME280_pressure;Samples;Min_cycle;Max_cycle;Signal;HPM_P1;HPM_P2
2021/03/30 00:09:19;;;;;;;0.20;0.20;;;11.80;68.90;;;;;;20888043;28;20039;-72
2021/03/30 00:19:19;;;;;;;0.40;0.40;;;11.80;68.90;;;;;;20906472;28;20041;-71
2021/03/30 00:29:20;;;;;;;1.52;0.80;;;11.70;68.80;;;;;;20918669;28;20102;-71
2021/03/30 00:39:21;;;;;;;0.33;0.30;;;11.70;68.90;;;;;;20901149;28;20120;-72
2021/03/30 00:49:21;;;;;;;0.68;0.45;;;11.70;68.90;;;;;;20917286;28;20073;-71
2021/03/30 00:59:23;;;;;;;1.42;1.17;;;11.70;68.90;;;;;;20883394;28;20087;-72
2021/03/30 01:09:52;;;;;;;0.93;0.68;;;11.70;68.90;;;;;;20883186;28;20482;-71
2021/03/30 01:20:29;;;;;;;1.42;0.75;;;11.70;68.90;;;;;;20900826;28;20080;-72
2021/03/30 01:30:31;;;;;;;2.75;0.45;;;11.70;68.90;;;;;;20884842;28;20065;-73
2021/03/30 01:40:32;;;;;;;1.45;0.93;;;11.70;69.00;;;;;;20869244;28;20041;-73
2021/03/30 01:50:33;;;;;;;1.38;0.93;;;11.70;68.90;;;;;;20877717;28;20032;-71
2021/03/30 02:00:34;;;;;;;0.68;0.52;;;11.70;68.90;;;;;;20879647;28;20044;-71
2021/03/30 02:10:46;;;;;;;0.70;0.60;;;11.70;68.90;;;;;;20894191;28;20284;-72
2021/03/30 02:21:04;;;;;;;0.40;0.32;;;11.70;69.00;;;;;;20894901;28;20406;-71
2021/03/30 02:31:05;;;;;;;1.15;0.63;;;11.70;69.00;;;;;;20909196;28;20426;-72
2021/03/30 02:41:06;;;;;;;2.47;0.30;;;11.70;68.90;;;;;;20892965;28;20055;-71
2021/03/30 02:51:06;;;;;;;0.82;0.47;;;11.70;68.90;;;;;;20891388;28;20796;-72
2021/03/30 03:01:07;;;;;;;1.35;0.55;;;11.70;68.80;;;;;;20890764;28;20032;-71
2021/03/30 03:11:07;;;;;;;1.07;0.37;;;11.70;68.80;;;;;;20890207;28;20059;-73
2021/03/30 03:21:08;;;;;;;0.90;0.32;;;11.60;68.70;;;;;;20889913;28;20645;-71
2021/03/30 03:31:10;;;;;;;1.33;0.68;;;11.60;68.70;;;;;;20873444;28;20283;-73
2021/03/30 03:41:15;;;;;;;2.65;0.70;;;11.60;68.60;;;;;;20904352;28;20037;-76
2021/03/30 03:51:16;;;;;;;0.73;0.40;;;11.60;68.60;;;;;;20879617;28;20035;-71
2021/03/30 04:01:20;;;;;;;1.10;0.57;;;11.70;68.70;;;;;;20901966;28;20055;-71
2021/03/30 04:11:21;;;;;;;1.10;0.63;;;11.60;68.70;;;;;;20887339;28;20103;-70
2021/03/30 04:21:26;;;;;;;0.50;0.40;;;11.60;68.70;;;;;;20902917;28;20494;-70
2021/03/30 04:31:26;;;;;;;1.20;0.55;;;11.60;68.70;;;;;;20886105;28;20479;-72
2021/03/30 04:41:27;;;;;;;1.08;0.40;;;11.60;68.60;;;;;;20917808;28;20061;-72
2021/03/30 04:51:27;;;;;;;1.67;0.90;;;11.60;68.50;;;;;;20900394;28;20100;-71
2021/03/30 05:01:28;;;;;;;1.40;0.85;;;11.60;68.40;;;;;;20883321;28;20045;-70
2021/03/30 05:11:28;;;;;;;0.65;0.45;;;11.60;68.30;;;;;;20882382;28;20037;-72
2021/03/30 05:21:29;;;;;;;1.40;0.80;;;11.60;68.40;;;;;;20887589;28;20040;-71
2021/03/30 05:31:30;;;;;;;1.00;0.70;;;11.60;68.30;;;;;;20913449;28;20073;-71
2021/03/30 05:41:31;;;;;;;1.67;0.80;;;11.60;68.30;;;;;;20896589;28;20047;-72
2021/03/30 05:51:33;;;;;;;1.00;0.70;;;11.60;68.20;;;;;;20879697;28;20033;-73
2021/03/30 06:01:33;;;;;;;1.30;0.82;;;11.60;68.20;;;;;;20867191;28;20047;-72
2021/03/30 06:11:35;;;;;;;0.80;0.40;;;11.60;68.10;;;;;;20836212;28;20248;-70
2021/03/30 06:21:43;;;;;;;0.88;0.70;;;11.60;68.20;;;;;;20791358;28;20416;-72
2021/03/30 06:31:43;;;;;;;1.08;0.68;;;11.60;68.10;;;;;;20760241;28;20505;-72
2021/03/30 06:41:58;;;;;;;1.45;0.93;;;11.60;68.10;;;;;;20833823;28;20029;-71
2021/03/30 06:51:59;;;;;;;4.78;1.30;;;11.60;68.10;;;;;;20760813;28;20069;-72
2021/03/30 07:02:00;;;;;;;1.05;0.60;;;11.60;68.10;;;;;;20819610;28;20049;-69
2021/03/30 07:12:00;;;;;;;4.60;1.23;;;11.60;68.00;;;;;;20804960;28;20060;-68
2021/03/30 07:22:08;;;;;;;0.57;0.55;;;11.50;67.70;;;;;;20835729;28;20410;-70
2021/03/30 07:32:25;;;;;;;2.47;1.02;;;11.50;67.30;;;;;;20827562;28;20041;-68
2021/03/30 07:42:26;;;;;;;1.08;0.73;;;11.50;66.90;;;;;;20779852;28;20047;-69
2021/03/30 07:52:28;;;;;;;1.05;0.80;;;11.50;66.50;;;;;;20785958;28;20436;-72
2021/03/30 08:02:29;;;;;;;0.35;0.32;;;11.50;66.40;;;;;;20817833;28;20033;-71
2021/03/30 08:12:29;;;;;;;1.95;0.82;;;11.60;66.40;;;;;;20837667;28;20460;-70
2021/03/30 08:23:01;;;;;;;1.20;0.63;;;11.70;66.30;;;;;;21238345;22;20086;-71
2021/03/30 08:33:02;;;;;;;0.40;0.40;;;11.70;66.30;;;;;;20797782;28;20403;-73
2021/03/30 08:43:16;;;;;;;1.13;0.75;;;11.80;66.30;;;;;;20788984;28;20037;-71
2021/03/30 08:53:20;;;;;;;1.75;0.93;;;11.80;66.10;;;;;;20829504;28;20041;-73
2021/03/30 09:03:28;;;;;;;1.25;0.52;;;11.80;65.90;;;;;;20779512;28;20460;-74
2021/03/30 09:13:28;;;;;;;2.45;0.90;;;11.80;65.70;;;;;;20811304;28;20036;-72
2021/03/30 09:23:29;;;;;;;1.77;0.97;;;11.90;65.70;;;;;;20777457;28;548368;-73
2021/03/30 09:33:30;;;;;;;4.93;1.95;;;11.90;65.70;;;;;;20798065;28;20908;-76
2021/03/30 09:43:30;;;;;;;7.70;1.73;;;12.00;65.80;;;;;;20797732;28;20033;-74
2021/03/30 09:53:42;;;;;;;2.42;1.15;;;12.00;65.90;;;;;;20795859;28;20384;-74
2021/03/30 10:03:42;;;;;;;1.85;0.80;;;12.20;66.20;;;;;;20779878;28;20113;-76
2021/03/30 10:13:43;;;;;;;3.65;1.73;;;12.10;66.20;;;;;;20794410;28;20128;-75
2021/03/30 10:23:49;;;;;;;0.83;0.60;;;12.20;66.50;;;;;;20778365;28;20860;-75
2021/03/30 10:33:51;;;;;;;2.13;1.07;;;12.20;66.80;;;;;;20776491;28;20330;-76
2021/03/30 10:43:57;;;;;;;2.15;1.13;;;12.30;67.20;;;;;;20809493;28;20036;-74
2021/03/30 10:54:00;;;;;;;3.00;1.27;;;12.20;67.40;;;;;;20808897;28;20057;-76
2021/03/30 11:04:01;;;;;;;2.85;1.70;;;12.20;67.70;;;;;;20792052;28;20295;-81
2021/03/30 11:14:02;;;;;;;6.20;1.17;;;12.40;68.10;;;;;;20790357;28;20045;-76
2021/03/30 11:24:04;;;;;;;3.45;1.10;;;12.30;68.10;;;;;;20774637;28;20112;-77
2021/03/30 11:34:25;;;;;;;2.00;1.00;;;12.30;68.40;;;;;;20773842;28;20037;-77
2021/03/30 11:44:25;;;;;;;2.53;1.33;;;12.30;68.50;;;;;;20792654;28;20041;-77
2021/03/30 11:54:27;;;;;;;2.17;0.95;;;12.30;68.70;;;;;;20790831;28;20033;-77
2021/03/30 12:04:27;;;;;;;2.72;1.20;;;12.40;68.70;;;;;;20774042;28;20392;-75
2021/03/30 12:14:28;;;;;;;1.00;0.90;;;12.30;68.70;;;;;;20774495;28;20041;-77
2021/03/30 12:24:28;;;;;;;4.50;1.88;;;12.40;68.90;;;;;;20787199;28;20069;-77
2021/03/30 12:34:29;;;;;;;2.90;1.07;;;12.50;69.10;;;;;;20802182;28;20039;-74
2021/03/30 12:44:30;;;;;;;3.97;1.17;;;12.40;68.90;;;;;;20802638;28;20386;-76
2021/03/30 12:54:30;;;;;;;2.92;1.13;;;12.40;69.00;;;;;;20803196;28;20075;-75
2021/03/30 13:04:31;;;;;;;2.55;1.05;;;12.40;69.00;;;;;;20801143;28;20033;-74
2021/03/30 13:14:32;;;;;;;1.77;1.05;;;12.40;68.90;;;;;;20800573;28;20033;-76
2021/03/30 13:24:37;;;;;;;1.85;0.88;;;12.40;68.80;;;;;;20799794;28;20136;-75
2021/03/30 13:34:38;;;;;;;5.03;0.80;;;12.40;68.70;;;;;;20798294;28;20388;-75
2021/03/30 13:44:39;;;;;;;1.98;1.08;;;12.40;68.60;;;;;;20797843;28;20033;-74
2021/03/30 13:54:40;;;;;;;2.05;1.02;;;12.40;68.40;;;;;;20763734;28;20088;-74
2021/03/30 14:04:40;;;;;;;1.15;0.50;;;12.50;68.20;;;;;;20764229;28;20124;-75
2021/03/30 14:14:43;;;;;;;0.98;0.60;;;12.50;67.90;;;;;;20795519;28;20033;-75
2021/03/30 14:24:56;;;;;;;0.93;0.60;;;12.50;67.70;;;;;;20794877;28;20038;-75
2021/03/30 14:34:58;;;;;;;0.65;0.45;;;12.50;67.30;;;;;;20780320;28;20087;-76
2021/03/30 14:45:16;;;;;;;1.77;1.10;;;12.60;67.20;;;;;;20776186;28;20048;-78
2021/03/30 15:05:29;;;;;;;1.38;0.63;;;12.70;66.70;;;;;;20795989;28;20065;-75
2021/03/30 15:15:38;;;;;;;1.33;0.65;;;12.80;66.30;;;;;;20807938;28;20033;-75
2021/03/30 15:25:39;;;;;;;1.05;0.82;;;13.00;66.10;;;;;;20792513;28;20037;-75
2021/03/30 15:35:39;;;;;;;7.50;0.95;;;13.10;65.70;;;;;;20807519;28;20034;-73
2021/03/30 15:45:46;;;;;;;2.20;0.68;;;13.20;65.40;;;;;;20774046;28;20064;-75
2021/03/30 15:55:46;;;;;;;2.43;1.03;;;13.20;65.10;;;;;;20802414;28;20462;-75
2021/03/30 16:05:47;;;;;;;1.35;0.68;;;13.30;64.90;;;;;;20822849;28;20124;-73
2021/03/30 16:15:48;;;;;;;1.00;0.68;;;13.40;64.60;;;;;;20804674;28;20034;-74
2021/03/30 16:25:50;;;;;;;2.75;0.70;;;13.40;64.40;;;;;;20810623;28;20040;-80
2021/03/30 16:35:51;;;;;;;12.43;1.17;;;13.40;64.30;;;;;;20820130;28;20033;-81
2021/03/30 16:45:52;;;;;;;1.42;0.68;;;13.40;64.30;;;;;;20819129;28;20167;-81
2021/03/30 16:55:53;;;;;;;0.57;0.50;;;13.30;64.20;;;;;;20818323;28;20033;-81
2021/03/30 17:05:54;;;;;;;2.00;0.68;;;13.30;64.30;;;;;;20796046;28;20039;-82
2021/03/30 17:15:55;;;;;;;0.50;0.50;;;13.30;64.30;;;;;;20821558;28;20519;-80
2021/03/30 17:25:58;;;;;;;1.52;0.60;;;13.30;64.40;;;;;;20799678;28;20120;-72
2021/03/30 17:35:59;;;;;;;0.80;0.50;;;13.30;64.60;;;;;;20832282;28;20045;-80
2021/03/30 17:46:00;;;;;;;1.92;0.75;;;13.40;64.60;;;;;;20798772;28;20136;-80
2021/03/30 17:56:00;;;;;;;2.47;0.95;;;13.40;64.80;;;;;;20814960;28;20120;-80
2021/03/30 18:06:01;;;;;;;1.73;0.65;;;13.30;65.10;;;;;;20829598;28;20299;-80
2021/03/30 18:16:03;;;;;;;3.83;0.45;;;13.30;65.60;;;;;;20811524;28;20034;-82
2021/03/30 18:26:05;;;;;;;3.65;0.77;;;13.30;66.00;;;;;;20794593;28;20046;-77
2021/03/30 18:36:06;;;;;;;0.98;0.55;;;13.30;66.40;;;;;;20806164;28;20037;-76
2021/03/30 18:46:07;;;;;;;1.15;0.77;;;13.20;66.70;;;;;;20786951;28;20495;-77
2021/03/30 18:56:08;;;;;;;1.23;0.67;;;13.10;66.90;;;;;;20806401;28;20033;-77
2021/03/30 19:06:11;;;;;;;0.45;0.43;;;13.10;67.10;;;;;;20789603;28;20391;-81
2021/03/30 19:16:13;;;;;;;0.32;0.28;;;13.00;67.10;;;;;;20786794;28;20484;-77
2021/03/30 19:26:14;;;;;;;1.00;0.80;;;13.00;67.20;;;;;;20806508;28;20136;-77
2021/03/30 19:36:16;;;;;;;1.20;0.65;;;13.00;67.20;;;;;;20804961;28;20120;-76
2021/03/30 19:46:17;;;;;;;0.65;0.35;;;13.00;67.20;;;;;;20803670;28;20025;-76
2021/03/30 19:56:17;;;;;;;2.83;0.57;;;12.90;67.20;;;;;;20801307;28;20102;-76
2021/03/30 20:06:18;;;;;;;1.02;0.60;;;12.90;67.20;;;;;;20800288;28;20370;-77
2021/03/30 20:16:19;;;;;;;1.50;0.65;;;12.90;67.20;;;;;;20784118;28;20108;-76
2021/03/30 20:26:19;;;;;;;0.65;0.60;;;12.90;67.20;;;;;;20815850;28;20049;-76
2021/03/30 20:36:21;;;;;;;0.85;0.35;;;12.90;67.20;;;;;;20800079;28;20041;-77
2021/03/30 20:46:22;;;;;;;2.05;0.38;;;12.90;67.20;;;;;;20783662;28;20132;-77
2021/03/30 20:56:22;;;;;;;2.78;0.95;;;12.90;67.20;;;;;;20766566;28;20036;-78
2021/03/30 21:06:23;;;;;;;0.38;0.38;;;12.90;67.20;;;;;;20799565;28;20044;-76
2021/03/30 21:16:24;;;;;;;0.90;0.73;;;12.80;67.20;;;;;;20849944;28;20112;-77
2021/03/30 21:26:25;;;;;;;1.25;0.52;;;12.80;67.20;;;;;;20849263;28;20487;-77
2021/03/30 21:36:25;;;;;;;0.65;0.47;;;12.80;67.20;;;;;;20844567;28;20033;-77
2021/03/30 21:46:27;;;;;;;1.70;0.65;;;12.80;67.20;;;;;;20795214;28;20041;-78
2021/03/30 21:56:30;;;;;;;0.20;0.20;;;12.80;67.20;;;;;;20830186;28;20138;-77
2021/03/30 22:06:31;;;;;;;0.45;0.30;;;12.80;67.20;;;;;;20796722;28;20029;-77
2021/03/30 22:16:31;;;;;;;0.73;0.60;;;12.80;67.20;;;;;;20795835;28;20448;-78
2021/03/30 22:26:32;;;;;;;0.82;0.70;;;12.80;67.30;;;;;;20811287;28;20041;-77
2021/03/30 22:36:32;;;;;;;0.60;0.50;;;12.80;67.90;;;;;;20794280;28;20480;-77
2021/03/30 22:46:33;;;;;;;2.08;1.13;;;12.80;67.30;;;;;;20810449;28;20488;-77
2021/03/30 22:56:33;;;;;;;1.52;0.90;;;12.80;67.40;;;;;;20825252;28;20483;-77
2021/03/30 23:06:34;;;;;;;2.17;0.82;;;12.70;67.30;;;;;;20808611;28;20104;-78
2021/03/30 23:16:35;;;;;;;2.20;1.08;;;12.70;67.40;;;;;;20792160;28;20576;-77
2021/03/30 23:26:35;;;;;;;1.58;0.85;;;12.70;67.30;;;;;;20791870;28;20506;-77
2021/03/30 23:36:36;;;;;;;0.95;0.70;;;12.70;67.30;;;;;;20790487;28;20484;-77
2021/03/30 23:46:36;;;;;;;0.73;0.60;;;12.70;67.30;;;;;;20791089;28;20424;-77
2021/03/30 23:56:38;;;;;;;0.90;0.55;;;12.70;67.30;;;;;;20806909;28;20072;-78
